Time;durP1;ratioP1;P1;durP2;ratioP2;P2;SDS_P1;SDS_P2;PMS_P1;PMS_P2;Temp;Humidity;BMP_temperature;BMP_pressure;BME280_temperature;BME280_humidity;BME280_pressure;Samples;Min_cycle;Max_cycle;Signal;HPM_P1;HPM_P2
2021/01/22 00:01:18;;;;;;;6.28;0.80;;;;;;;3.88;94.64;97531.47;5094765;28;20123;-78
2021/01/22 00:03:43;;;;;;;4.40;1.15;;;;;;;3.88;94.59;97528.91;5095860;28;20016;-78
2021/01/22 00:06:11;;;;;;;3.22;0.90;;;;;;;3.91;94.89;97518.53;5094632;28;20361;-78
2021/01/22 00:08:36;;;;;;;5.53;1.27;;;;;;;3.93;95.15;97521.03;5095776;28;20079;-78
2021/01/22 00:11:01;;;;;;;8.13;1.27;;;;;;;3.91;95.31;97497.19;5094502;28;20020;-78
2021/01/22 00:13:27;;;;;;;5.65;1.05;;;;;;;4.03;94.59;97500.97;5094310;28;20024;-78
2021/01/22 00:15:52;;;;;;;6.35;1.42;;;;;;;4.05;95.09;97494.06;5094744;28;20022;-79
2021/01/22 00:18:17;;;;;;;4.88;1.27;;;;;;;4.09;94.82;97490.44;5094288;28;20144;-79
2021/01/22 00:20:42;;;;;;;6.85;1.38;;;;;;;4.11;95.04;97473.28;5094158;28;20095;-79
2021/01/22 00:23:08;;;;;;;10.55;1.70;;;;;;;4.19;95.15;97473.81;5095793;28;20043;-78
2021/01/22 00:25:33;;;;;;;5.38;1.60;;;;;;;4.31;94.61;97480.13;5095390;28;20107;-78
2021/01/22 00:27:58;;;;;;;4.30;1.30;;;;;;;4.30;94.71;97458.78;5094164;28;20036;-78
2021/01/22 00:30:23;;;;;;;6.05;1.30;;;;;;;4.29;94.99;97435.75;5093990;28;20016;-78
2021/01/22 00:32:49;;;;;;;3.65;1.13;;;;;;;4.37;95.01;97460.19;5095138;28;20036;-78
2021/01/22 00:35:14;;;;;;;8.10;1.80;;;;;;;4.42;94.82;97464.28;5095416;28;20028;-78
2021/01/22 00:37:39;;;;;;;3.67;0.93;;;;;;;4.43;94.85;97430.84;5095615;28;20024;-78
2021/01/22 00:40:06;;;;;;;7.13;1.52;;;;;;;4.44;94.97;97424.84;5093796;28;20145;-78
2021/01/22 00:42:33;;;;;;;5.38;2.05;;;;;;;4.46;95.15;97425.56;5095368;28;20104;-78
2021/01/22 00:44:58;;;;;;;3.60;1.10;;;;;;;4.68;94.72;97428.03;5093971;28;20020;-79
2021/01/22 00:47:24;;;;;;;8.27;1.35;;;;;;;4.60;95.11;97412.97;5093865;28;20114;-79
2021/01/22 00:49:49;;;;;;;5.47;1.10;;;;;;;4.75;95.01;97418.34;5093835;28;20051;-79
2021/01/22 00:52:14;;;;;;;5.43;1.40;;;;;;;4.80;94.97;97403.53;5093596;28;20392;-79
2021/01/22 00:54:39;;;;;;;5.60;0.90;;;;;;;4.80;95.48;97390.69;5094132;28;20063;-79
2021/01/22 00:57:05;;;;;;;7.47;1.25;;;;;;;4.83;95.64;97382.84;5094383;28;20408;-79
2021/01/22 00:59:30;;;;;;;6.25;1.35;;;;;;;4.82;95.63;97369.19;5094036;28;20024;-79
2021/01/22 01:01:55;;;;;;;3.17;0.93;;;;;;;4.99;95.14;97360.72;5093669;28;20084;-79
2021/01/22 01:04:20;;;;;;;6.03;1.10;;;;;;;5.02;95.14;97381.09;5093578;28;20024;-79
2021/01/22 01:06:46;;;;;;;3.78;1.10;;;;;;;5.15;94.91;97385.66;5094457;28;20042;-79
2021/01/22 01:09:11;;;;;;;3.72;1.10;;;;;;;5.20;95.00;97365.72;5094628;28;20077;-78
2021/01/22 01:11:36;;;;;;;5.10;1.30;;;;;;;5.25;95.02;97374.88;5093282;28;20028;-78
2021/01/22 01:14:02;;;;;;;4.07;0.90;;;;;;;5.46;94.01;97365.28;5094601;28;20538;-78
2021/01/22 01:16:28;;;;;;;2.10;0.63;;;;;;;5.54;93.57;97362.31;5094750;28;20052;-78
2021/01/22 01:18:53;;;;;;;5.47;0.93;;;;;;;5.53;93.82;97368.38;5094596;28;20476;-78
2021/01/22 01:21:18;;;;;;;4.03;1.25;;;;;;;5.69;93.04;97350.47;5094119;28;20081;-78
2021/01/22 01:23:44;;;;;;;7.72;1.45;;;;;;;5.80;92.42;97345.63;5094532;28;20026;-78
2021/01/22 01:26:09;;;;;;;3.30;0.98;;;;;;;5.76;92.97;97351.81;5094521;28;20381;-78
2021/01/22 01:28:34;;;;;;;6.07;1.27;;;;;;;5.69;93.20;97341.00;5094443;28;20073;-78
2021/01/22 01:30:59;;;;;;;4.35;1.00;;;;;;;5.58;93.80;97343.28;5092815;28;20269;-78
2021/01/22 01:33:25;;;;;;;3.35;1.02;;;;;;;5.67;92.98;97331.72;5094326;28;20036;-78
2021/01/22 01:35:52;;;;;;;2.42;0.75;;;;;;;5.85;92.80;97324.78;5094456;28;20039;-78
2021/01/22 01:38:18;;;;;;;3.28;1.08;;;;;;;5.76;93.25;97331.25;5092949;28;20020;-78
2021/01/22 01:40:44;;;;;;;4.32;1.00;;;;;;;5.85;93.20;97324.78;5094261;28;20103;-78
2021/01/22 01:43:09;;;;;;;4.22;1.10;;;;;;;5.89;92.89;97311.72;5094030;28;20455;-78
2021/01/22 01:45:39;;;;;;;3.75;0.90;;;;;;;5.98;92.51;97316.41;5092978;28;20016;-78
2021/01/22 01:48:07;;;;;;;3.10;0.75;;;;;;;5.96;92.88;97320.78;5092955;28;20108;-78
2021/01/22 01:50:32;;;;;;;2.50;0.70;;;;;;;6.12;92.26;97307.13;5093018;28;20016;-78
2021/01/22 01:52:58;;;;;;;2.35;0.80;;;;;;;6.12;92.26;97307.13;5094358;28;20096;-78
2021/01/22 01:55:23;;;;;;;3.70;0.90;;;;;;;6.06;92.37;97307.44;5094031;28;20464;-78
2021/01/22 01:57:48;;;;;;;3.13;0.90;;;;;;;6.21;91.85;97314.38;5092826;28;20441;-78
2021/01/22 02:00:14;;;;;;;1.73;0.50;;;;;;;6.21;91.92;97299.75;5094048;28;20027;-78
2021/01/22 02:02:39;;;;;;;2.28;0.77;;;;;;;6.26;91.60;97296.13;5094049;28;20028;-78
2021/01/22 02:05:05;;;;;;;3.60;1.48;;;;;;;6.31;91.46;97288.97;5093896;28;20027;-78
2021/01/22 02:07:30;;;;;;;3.92;1.02;;;;;;;6.30;91.35;97289.91;5092409;28;20476;-78
2021/01/22 02:09:56;;;;;;;2.33;0.75;;;;;;;6.20;91.74;97282.66;5092409;28;20057;-78
2021/01/22 02:12:21;;;;;;;1.95;0.70;;;;;;;6.25;91.83;97272.13;5092405;28;20475;-78
2021/01/22 02:14:47;;;;;;;2.63;0.85;;;;;;;6.22;91.83;97262.84;5092667;28;20024;-78
2021/01/22 02:17:13;;;;;;;3.40;0.77;;;;;;;6.31;91.64;97273.53;5092934;28;20024;-78
2021/01/22 02:20:01;;;;;;;5.35;0.98;;;;;;;6.34;91.45;97257.91;5098266;28;20027;-77
2021/01/22 02:22:26;;;;;;;3.35;1.00;;;;;;;6.31;92.00;97268.38;5100493;28;20024;-78
2021/01/22 02:24:52;;;;;;;2.42;0.70;;;;;;;6.37;91.57;97255.19;5099230;28;20020;-78
2021/01/22 02:27:19;;;;;;;2.47;0.88;;;;;;;6.36;91.63;97254.34;5100533;28;20024;-78
2021/01/22 02:29:45;;;;;;;3.80;0.90;;;;;;;6.43;91.18;97247.13;5100558;28;20024;-78
2021/01/22 02:32:12;;;;;;;2.33;0.80;;;;;;;6.47;91.20;97247.81;5098935;28;20055;-78
2021/01/22 02:34:40;;;;;;;2.78;0.80;;;;;;;6.42;91.72;97242.91;5100413;28;20484;-78
2021/01/22 02:37:10;;;;;;;2.72;0.93;;;;;;;6.44;91.11;97241.09;5100377;28;20032;-78
2021/01/22 02:39:37;;;;;;;3.63;0.68;;;;;;;6.56;90.78;97230.09;5100372;28;20020;-78
2021/01/22 02:42:04;;;;;;;2.05;0.73;;;;;;;6.57;90.69;97231.75;5100165;28;20038;-78
2021/01/22 02:44:31;;;;;;;2.70;0.60;;;;;;;6.55;90.66;97217.31;5100784;28;20030;-78
2021/01/22 02:46:59;;;;;;;2.58;0.80;;;;;;;6.59;90.78;97224.78;5100862;28;20028;-78
2021/01/22 02:49:24;;;;;;;3.25;0.82;;;;;;;6.55;91.24;97218.13;5099265;28;20031;-78
2021/01/22 02:51:49;;;;;;;2.40;0.77;;;;;;;6.58;91.38;97211.97;5100645;28;20381;-78
2021/01/22 02:54:15;;;;;;;2.17;0.60;;;;;;;6.61;90.65;97202.34;5099314;28;20028;-78
2021/01/22 02:56:55;;;;;;;0.57;0.40;;;;;;;6.69;90.51;97205.31;5100707;28;20036;-78
2021/01/22 02:59:20;;;;;;;4.32;0.95;;;;;;;6.63;90.61;97192.78;5100558;28;20115;-78
2021/01/22 03:02:00;;;;;;;1.55;0.60;;;;;;;6.58;91.15;97189.63;5099351;28;20063;-78
2021/01/22 03:04:27;;;;;;;1.35;0.45;;;;;;;6.65;90.61;97193.53;5100030;28;20042;-78
2021/01/22 03:06:56;;;;;;;1.90;0.63;;;;;;;6.80;89.79;97181.50;5099645;28;20486;-78
2021/01/22 03:09:24;;;;;;;1.75;0.60;;;;;;;6.80;89.71;97191.00;5099491;28;20019;-78
2021/01/22 03:11:54;;;;;;;1.30;0.45;;;;;;;6.84;89.13;97189.94;5100693;28;20027;-78
2021/01/22 03:14:20;;;;;;;2.60;0.75;;;;;;;6.86;89.32;97173.44;5098994;28;20024;-77
2021/01/22 03:16:48;;;;;;;1.95;0.40;;;;;;;6.85;89.15;97174.38;5099057;28;20498;-77
2021/01/22 03:19:14;;;;;;;2.65;0.60;;;;;;;6.84;88.92;97171.91;5104159;28;20109;-77
2021/01/22 03:21:39;;;;;;;1.08;0.40;;;;;;;6.96;88.02;97175.47;5106925;28;20032;-78
2021/01/22 03:24:05;;;;;;;1.58;0.50;;;;;;;6.96;88.20;97168.59;5106768;28;20012;-77
2021/01/22 03:26:30;;;;;;;1.17;0.32;;;;;;;6.98;88.41;97163.34;5106198;28;20024;-78
2021/01/22 03:28:55;;;;;;;2.42;0.70;;;;;;;7.15;87.16;97164.03;5099637;28;20024;-78
2021/01/22 03:31:20;;;;;;;1.58;0.60;;;;;;;7.10;88.05;97162.63;5096312;28;20020;-78
2021/01/22 03:33:46;;;;;;;1.30;0.40;;;;;;;7.05;88.16;97152.63;5095150;28;20028;-78
2021/01/22 03:36:12;;;;;;;2.25;1.00;;;;;;;6.95;89.02;97156.63;5096669;28;20024;-78
2021/01/22 03:38:37;;;;;;;1.60;0.63;;;;;;;7.06;88.31;97135.41;5096743;28;20157;-78
2021/01/22 03:41:02;;;;;;;2.22;0.60;;;;;;;7.03;88.89;97156.19;5097003;28;20361;-78
2021/01/22 03:43:28;;;;;;;3.38;1.17;;;;;;;6.87;90.11;97145.97;5096826;28;20039;-78
2021/01/22 03:45:53;;;;;;;1.77;0.50;;;;;;;6.91;89.30;97148.25;5096536;28;20051;-78
2021/01/22 03:48:19;;;;;;;2.08;0.55;;;;;;;7.02;89.10;97149.34;5096441;28;20072;-78
2021/01/22 03:50:44;;;;;;;3.28;0.50;;;;;;;6.87;90.36;97148.53;5096704;28;20504;-78
2021/01/22 03:53:10;;;;;;;2.55;0.50;;;;;;;6.91;89.58;97147.44;5096410;28;20561;-78
2021/01/22 03:55:35;;;;;;;1.75;0.55;;;;;;;6.82;90.52;97153.13;5095248;28;20020;-78
2021/01/22 03:58:00;;;;;;;3.22;0.80;;;;;;;6.75;91.70;97146.66;5096593;28;20030;-78
2021/01/22 04:00:26;;;;;;;4.28;0.65;;;;;;;6.89;90.41;97138.94;5095278;28;20020;-78
2021/01/22 04:02:51;;;;;;;1.35;0.45;;;;;;;7.03;89.04;97141.56;5096630;28;20081;-79
2021/01/22 04:05:16;;;;;;;3.17;0.65;;;;;;;6.92;90.21;97131.88;5095021;28;20020;-78
2021/01/22 04:07:41;;;;;;;2.70;0.60;;;;;;;6.95;90.07;97137.78;5095160;28;20460;-78
2021/01/22 04:10:07;;;;;;;3.38;0.80;;;;;;;7.02;90.00;97129.59;5095114;28;20549;-78
2021/01/22 04:12:35;;;;;;;1.40;0.50;;;;;;;7.04;88.67;97139.81;5095054;28;20027;-78
2021/01/22 04:15:01;;;;;;;4.07;0.60;;;;;;;7.01;89.74;97153.69;5095988;28;20126;-78
2021/01/22 04:17:26;;;;;;;1.85;0.50;;;;;;;6.92;91.11;97164.53;5095837;28;20361;-78
2021/01/22 04:19:52;;;;;;;5.47;0.70;;;;;;;6.89;91.28;97168.09;5096011;28;20035;-78
2021/01/22 04:22:17;;;;;;;7.93;0.90;;;;;;;6.81;92.68;97252.75;5094666;28;20395;-78
2021/01/22 04:24:42;;;;;;;4.45;1.05;;;;;;;6.41;93.28;97261.84;5096423;28;20076;-79
2021/01/22 04:27:08;;;;;;;3.63;0.50;;;;;;;6.01;92.81;97268.28;5096686;28;20038;-79
2021/01/22 04:29:33;;;;;;;5.75;0.40;;;;;;;5.50;91.61;97276.81;5096642;28;20032;-79
2021/01/22 04:31:58;;;;;;;0.90;0.20;;;;;;;5.14;90.70;97292.38;5094844;28;20518;-78
2021/01/22 04:34:23;;;;;;;0.17;0.10;;;;;;;4.84;91.71;97302.38;5094746;28;20024;-78
2021/01/22 04:36:49;;;;;;;1.90;0.22;;;;;;;4.63;92.64;97317.03;5095877;28;20541;-78
2021/01/22 04:39:14;;;;;;;1.35;0.20;;;;;;;4.46;92.64;97338.34;5095805;28;20036;-78
2021/01/22 04:41:40;;;;;;;0.93;0.13;;;;;;;4.28;92.33;97347.72;5096205;28;20046;-78
2021/01/22 04:44:05;;;;;;;1.35;0.28;;;;;;;4.05;91.98;97364.09;5094302;28;20464;-78
2021/01/22 04:46:35;;;;;;;0.82;0.40;;;;;;;3.90;92.58;97375.00;5094715;28;20050;-79
2021/01/22 04:49:01;;;;;;;0.57;0.28;;;;;;;3.76;93.53;97387.59;5094500;28;20520;-78
2021/01/22 04:51:30;;;;;;;0.70;0.30;;;;;;;3.53;93.43;97396.22;5095995;28;20388;-78
2021/01/22 04:53:57;;;;;;;0.82;0.30;;;;;;;3.44;94.23;97403.38;5095598;28;20027;-78
2021/01/22 04:56:25;;;;;;;0.20;0.10;;;;;;;3.31;94.36;97414.19;5095718;28;20028;-78
2021/01/22 04:58:55;;;;;;;0.43;0.20;;;;;;;3.06;93.34;97416.88;5095582;28;20024;-78
2021/01/22 05:01:21;;;;;;;0.55;0.10;;;;;;;2.89;93.50;97437.97;5094521;28;20468;-79
2021/01/22 05:03:47;;;;;;;0.85;0.20;;;;;;;2.68;93.16;97445.59;5095627;28;20080;-78
2021/01/22 05:06:14;;;;;;;0.47;0.00;;;;;;;2.47;92.98;97451.47;5094223;28;20027;-78
2021/01/22 05:08:40;;;;;;;0.30;0.20;;;;;;;2.39;92.81;97463.69;5094120;28;20035;-78
2021/01/22 05:11:05;;;;;;;0.28;0.20;;;;;;;2.29;93.97;97468.31;5094042;28;20028;-78
2021/01/22 05:13:31;;;;;;;0.30;0.10;;;;;;;2.27;93.73;97490.53;5095154;28;20039;-78
2021/01/22 05:16:13;;;;;;;0.70;0.30;;;;;;;2.21;94.69;97496.66;5095058;28;20369;-78
2021/01/22 05:18:39;;;;;;;0.25;0.20;;;;;;;2.04;94.11;97504.91;5095033;28;20102;-78
2021/01/22 05:21:12;;;;;;;0.10;0.10;;;;;;;1.92;93.98;97515.56;5094933;28;20111;-78
2021/01/22 05:23:38;;;;;;;0.70;0.40;;;;;;;1.82;93.72;97520.13;5094929;28;20028;-78
2021/01/22 05:26:07;;;;;;;3.55;0.75;;;;;;;1.83;94.61;97532.00;5094639;28;20024;-78
2021/01/22 05:28:35;;;;;;;1.05;0.40;;;;;;;1.77;94.38;97541.59;5093250;28;20024;-78
2021/01/22 05:31:01;;;;;;;1.88;0.75;;;;;;;1.73;94.72;97556.19;5094549;28;20020;-78
2021/01/22 05:33:27;;;;;;;1.20;0.55;;;;;;;1.66;94.50;97551.31;5094404;28;20027;-78
2021/01/22 05:35:52;;;;;;;1.55;0.55;;;;;;;1.61;94.25;97567.63;5092859;28;20025;-78
2021/01/22 05:38:17;;;;;;;1.35;0.70;;;;;;;1.60;94.66;97563.41;5092927;28;20020;-78
2021/01/22 05:40:50;;;;;;;2.70;1.02;;;;;;;1.63;95.04;97593.09;5094365;28;20042;-78
2021/01/22 05:43:15;;;;;;;2.80;1.08;;;;;;;1.55;94.09;97601.00;5092827;28;20016;-78
2021/01/22 05:45:45;;;;;;;1.33;0.73;;;;;;;1.51;94.54;97606.22;5094389;28;20521;-78
2021/01/22 05:48:24;;;;;;;3.13;1.00;;;;;;;1.53;94.28;97605.31;5092529;28;20024;-78
2021/01/22 05:50:51;;;;;;;1.88;0.88;;;;;;;1.53;94.61;97600.19;5094358;28;20468;-78
2021/01/22 05:53:18;;;;;;;3.63;1.00;;;;;;;1.50;94.93;97615.63;5092186;28;20452;-78
2021/01/22 05:55:43;;;;;;;2.45;0.82;;;;;;;1.49;94.93;97631.84;5092841;28;20020;-78
2021/01/22 05:58:08;;;;;;;2.53;0.82;;;;;;;1.48;94.31;97640.38;5092671;28;20031;-78
2021/01/22 06:00:34;;;;;;;4.55;1.20;;;;;;;1.45;94.54;97634.50;5092542;28;20424;-78
2021/01/22 06:02:59;;;;;;;3.28;1.10;;;;;;;1.48;95.08;97639.53;5092701;28;20023;-78
2021/01/22 06:05:26;;;;;;;3.90;1.15;;;;;;;1.51;94.68;97647.09;5092510;28;20042;-78
2021/01/22 06:08:08;;;;;;;2.95;1.30;;;;;;;1.45;94.64;97647.28;5093906;28;20047;-78
2021/01/22 06:10:39;;;;;;;3.17;1.00;;;;;;;1.45;94.80;97652.38;5092418;28;20028;-78
2021/01/22 06:13:08;;;;;;;2.80;1.10;;;;;;;1.38;94.63;97664.47;5093828;28;20023;-78
2021/01/22 06:15:34;;;;;;;2.97;1.13;;;;;;;1.39;94.87;97653.41;5093750;28;20073;-78
2021/01/22 06:18:01;;;;;;;3.75;1.33;;;;;;;1.40;94.56;97656.78;5093402;28;20053;-77
2021/01/22 06:20:26;;;;;;;4.47;1.50;;;;;;;1.40;94.71;97667.84;5092132;28;20020;-77
2021/01/22 06:23:11;;;;;;;4.45;1.42;;;;;;;1.40;94.49;97680.59;5093500;28;20081;-78
2021/01/22 06:25:41;;;;;;;4.82;1.60;;;;;;;1.43;94.67;97690.75;5093279;28;20020;-78
2021/01/22 06:28:08;;;;;;;3.92;1.60;;;;;;;1.45;94.50;97706.00;5093312;28;20028;-78
2021/01/22 06:30:35;;;;;;;3.38;1.30;;;;;;;1.45;94.79;97704.31;5093283;28;20417;-78
2021/01/22 06:33:02;;;;;;;3.65;1.10;;;;;;;1.44;94.02;97715.38;5091840;28;20556;-78
2021/01/22 06:35:30;;;;;;;4.10;1.50;;;;;;;1.40;94.54;97705.31;5091879;28;20368;-77
2021/01/22 06:37:59;;;;;;;4.82;1.33;;;;;;;1.36;94.61;97700.28;5093386;28;20034;-78
2021/01/22 06:40:25;;;;;;;4.32;1.92;;;;;;;1.35;94.26;97721.56;5093439;28;20050;-78
2021/01/22 06:42:52;;;;;;;4.82;1.88;;;;;;;1.34;94.47;97727.56;5093698;28;20028;-79
2021/01/22 06:45:19;;;;;;;4.30;2.03;;;;;;;1.33;95.08;97725.06;5091911;28;20066;-78
2021/01/22 06:48:06;;;;;;;6.10;1.85;;;;;;;1.34;94.88;97716.53;5093619;28;20590;-79
2021/01/22 06:50:33;;;;;;;4.20;1.88;;;;;;;1.38;94.87;97728.31;5093294;28;20020;-79
2021/01/22 06:53:03;;;;;;;6.25;2.38;;;;;;;1.34;94.85;97739.50;5093145;28;20030;-78
2021/01/22 06:55:28;;;;;;;6.88;3.13;;;;;;;1.34;94.64;97735.22;5093303;28;20025;-78
2021/01/22 06:58:30;;;;;;;6.80;3.33;;;;;;;1.35;95.08;97741.16;5091959;28;20020;-78
2021/01/22 07:00:57;;;;;;;6.47;3.28;;;;;;;1.34;94.97;97755.66;5060148;28;20381;-78
2021/01/22 07:03:35;;;;;;;6.68;3.40;;;;;;;1.32;94.49;97769.34;5091944;28;20077;-78
2021/01/22 07:06:00;;;;;;;7.30;3.60;;;;;;;1.32;94.79;97777.81;5094462;28;20103;-78
2021/01/22 07:08:53;;;;;;;10.13;3.80;;;;;;;1.33;94.85;97786.34;5097067;28;20445;-78
2021/01/22 07:11:19;;;;;;;7.57;3.80;;;;;;;1.37;94.65;97787.94;5097065;28;20020;-78
2021/01/22 07:13:48;;;;;;;6.65;3.45;;;;;;;1.33;94.71;97801.69;5095599;28;20028;-77
2021/01/22 07:16:16;;;;;;;8.13;4.10;;;;;;;1.32;94.96;97797.41;5096820;28;20040;-78
2021/01/22 07:18:51;;;;;;;6.38;3.35;;;;;;;1.50;93.89;97802.06;5095373;28;20534;-78
2021/01/22 07:21:18;;;;;;;7.50;3.03;;;;;;;1.52;93.90;97810.53;5095709;28;20537;-78
2021/01/22 07:23:45;;;;;;;7.90;3.83;;;;;;;1.54;93.67;97811.34;5095830;28;20028;-79
2021/01/22 07:26:11;;;;;;;7.68;3.53;;;;;;;1.55;94.04;97813.00;5096015;28;20028;-78
2021/01/22 07:28:49;;;;;;;6.40;3.38;;;;;;;1.60;93.13;97818.84;5096686;28;20031;-78
2021/01/22 07:31:48;;;;;;;12.55;4.72;;;;;;;1.62;93.83;97826.44;5095993;28;20043;-78
2021/01/22 07:34:48;;;;;;;7.72;3.90;;;;;;;1.65;94.28;97828.09;5096743;28;20031;-78
2021/01/22 07:37:14;;;;;;;7.32;3.58;;;;;;;1.65;93.90;97828.09;5094892;28;20484;-78
2021/01/22 07:39:40;;;;;;;6.07;2.75;;;;;;;1.69;93.17;97827.94;5096150;28;20116;-78
2021/01/22 07:42:11;;;;;;;6.95;2.25;;;;;;;1.70;92.84;97828.81;5095440;28;20093;-78
2021/01/22 07:44:40;;;;;;;7.95;3.65;;;;;;;1.73;93.23;97831.28;5096302;28;20069;-78
2021/01/22 07:47:07;;;;;;;8.35;3.88;;;;;;;1.73;92.85;97836.41;5096451;28;20033;-78
2021/01/22 07:49:33;;;;;;;6.85;3.47;;;;;;;1.78;93.09;97844.75;5096935;28;20099;-78
2021/01/22 07:52:00;;;;;;;8.23;4.03;;;;;;;1.81;92.86;97853.16;5096273;28;20472;-79
2021/01/22 07:54:26;;;;;;;8.45;4.07;;;;;;;1.84;92.50;97854.81;5097544;28;20028;-79
2021/01/22 07:56:51;;;;;;;9.00;4.95;;;;;;;1.87;92.46;97849.63;5096364;28;20115;-79
2021/01/22 07:59:17;;;;;;;6.55;3.22;;;;;;;1.89;92.39;97847.03;5097655;28;20028;-80
2021/01/22 08:01:42;;;;;;;7.60;3.75;;;;;;;1.92;92.58;97857.19;5099759;28;20501;-80
2021/01/22 08:04:08;;;;;;;9.95;4.57;;;;;;;1.97;92.19;97856.19;5097810;28;20024;-79
2021/01/22 08:06:48;;;;;;;9.73;4.47;;;;;;;1.96;92.83;97866.44;5098082;28;20081;-79
2021/01/22 08:09:13;;;;;;;7.45;3.60;;;;;;;1.98;91.80;97867.25;5097490;28;20020;-79
2021/01/22 08:11:40;;;;;;;8.32;4.43;;;;;;;2.05;91.44;97869.56;5096891;28;20028;-79
2021/01/22 08:14:06;;;;;;;10.82;4.47;;;;;;;2.08;91.64;97869.47;5097201;28;20400;-79
2021/01/22 08:16:32;;;;;;;11.20;4.93;;;;;;;2.08;91.65;97872.03;5097749;28;20020;-79
2021/01/22 08:18:58;;;;;;;9.25;4.55;;;;;;;2.18;91.83;97864.13;5098128;28;20024;-83
2021/01/22 08:21:28;;;;;;;8.07;4.80;;;;;;;2.28;91.56;97878.34;5101800;28;20020;-83
2021/01/22 08:23:53;;;;;;;8.50;4.93;;;;;;;2.25;90.98;97886.94;5108234;28;20024;-80
2021/01/22 08:26:18;;;;;;;7.65;4.57;;;;;;;2.15;91.07;97884.66;5110977;28;20034;-80
2021/01/22 08:28:46;;;;;;;11.57;4.97;;;;;;;2.13;91.84;97886.44;5112063;28;20135;-80
2021/01/22 08:31:12;;;;;;;8.57;4.88;;;;;;;2.14;91.71;97885.56;5105906;28;20484;-80
2021/01/22 08:33:38;;;;;;;10.15;4.93;;;;;;;2.15;90.89;97887.22;5098071;28;20463;-79
2021/01/22 08:36:06;;;;;;;12.48;4.85;;;;;;;2.21;90.67;97894.72;5096728;28;20032;-79
2021/01/22 08:38:32;;;;;;;11.57;5.53;;;;;;;2.29;91.97;97896.19;5096915;28;20556;-80
2021/01/22 08:40:57;;;;;;;9.10;3.90;;;;;;;2.20;90.46;97900.72;5096184;28;20047;-80
2021/01/22 08:43:24;;;;;;;8.52;4.60;;;;;;;2.22;90.85;97907.47;5096548;28;20392;-80
2021/01/22 08:46:11;;;;;;;8.55;3.28;;;;;;;2.25;90.59;97909.13;5097051;28;20069;-80
2021/01/22 08:48:37;;;;;;;8.77;3.55;;;;;;;2.23;90.17;97908.31;5096146;28;20022;-80
2021/01/22 08:51:03;;;;;;;8.63;4.60;;;;;;;2.23;90.50;97905.75;5095521;28;20105;-79
2021/01/22 08:53:29;;;;;;;8.40;5.25;;;;;;;2.30;91.13;97909.81;5094973;28;20020;-79
2021/01/22 08:56:15;;;;;;;8.20;4.82;;;;;;;2.29;90.47;97914.09;5095224;28;20096;-79
2021/01/22 08:59:00;;;;;;;8.40;5.13;;;;;;;2.37;89.95;97915.59;5095180;28;20028;-79
2021/01/22 09:01:47;;;;;;;6.05;2.90;;;;;;;2.40;88.95;97921.47;5096993;28;20024;-80
2021/01/22 09:04:23;;;;;;;12.23;5.38;;;;;;;2.40;89.28;97925.72;5097489;28;20028;-79
2021/01/22 09:06:49;;;;;;;11.23;4.70;;;;;;;2.43;89.12;97928.19;5097050;28;20361;-80
2021/01/22 09:09:15;;;;;;;9.02;5.15;;;;;;;2.49;89.00;97938.25;5095480;28;20016;-80
2021/01/22 09:11:41;;;;;;;9.00;3.03;;;;;;;2.46;88.20;97946.03;5096688;28;20076;-79
2021/01/22 09:14:06;;;;;;;10.77;4.25;;;;;;;2.57;88.22;97945.75;5096772;28;20492;-80
2021/01/22 09:16:45;;;;;;;9.93;5.57;;;;;;;2.61;88.54;97955.00;5094833;28;20053;-80
2021/01/22 09:19:11;;;;;;;9.63;4.60;;;;;;;2.62;88.11;97956.69;5094330;28;20087;-80
2021/01/22 09:21:53;;;;;;;21.45;4.38;;;;;;;2.61;87.21;97948.16;5095089;28;20113;-80
2021/01/22 09:24:18;;;;;;;6.90;3.55;;;;;;;2.67;87.15;97954.81;5096086;28;20036;-80
2021/01/22 09:26:43;;;;;;;12.30;5.43;;;;;;;2.69;87.17;97958.19;5094106;28;20078;-79
2021/01/22 09:29:09;;;;;;;12.25;5.25;;;;;;;2.72;87.05;97958.94;5093419;28;20050;-80
2021/01/22 09:31:34;;;;;;;11.30;5.30;;;;;;;2.72;86.32;97958.09;5096073;28;20486;-79
2021/01/22 09:33:59;;;;;;;10.40;4.60;;;;;;;2.76;86.18;97962.25;5093943;28;20032;-79
2021/01/22 09:36:24;;;;;;;11.10;5.32;;;;;;;2.91;85.83;97960.97;5094103;28;20028;-78
2021/01/22 09:38:50;;;;;;;8.63;5.13;;;;;;;2.95;85.47;97959.97;5093808;28;20391;-79
2021/01/22 09:41:17;;;;;;;8.02;3.65;;;;;;;2.96;85.63;97970.19;5093310;28;20032;-79
2021/01/22 09:43:42;;;;;;;8.52;5.28;;;;;;;3.04;85.43;97964.00;5094506;28;20028;-78
2021/01/22 09:46:07;;;;;;;11.52;6.18;;;;;;;3.04;86.45;97957.16;5093645;28;20391;-80
2021/01/22 09:48:33;;;;;;;9.32;5.68;;;;;;;2.93;86.56;97980.53;5093581;28;20126;-79
2021/01/22 09:50:58;;;;;;;12.25;5.88;;;;;;;2.93;86.81;97977.97;5095089;28;20031;-79
2021/01/22 09:53:23;;;;;;;9.52;5.57;;;;;;;2.96;86.02;97984.72;5094911;28;20024;-79
2021/01/22 09:55:48;;;;;;;13.48;6.07;;;;;;;3.00;86.33;97973.50;5093737;28;20089;-79
2021/01/22 09:58:14;;;;;;;10.80;4.40;;;;;;;3.03;85.91;97972.56;5095058;28;20024;-80
2021/01/22 10:00:39;;;;;;;10.45;4.53;;;;;;;3.34;85.39;97968.19;5095720;28;20028;-80
2021/01/22 10:03:04;;;;;;;7.60;4.43;;;;;;;3.39;84.73;97975.75;5096029;28;20480;-79
2021/01/22 10:05:29;;;;;;;9.38;4.72;;;;;;;3.46;84.23;97983.19;5094649;28;20104;-79
2021/01/22 10:07:55;;;;;;;9.65;5.65;;;;;;;3.83;83.49;97992.28;5096398;28;20020;-80
2021/01/22 10:10:20;;;;;;;10.07;5.43;;;;;;;3.76;82.98;97985.69;5094637;28;20020;-80
2021/01/22 10:12:46;;;;;;;8.73;5.25;;;;;;;3.85;83.21;97993.06;5094121;28;20476;-79
2021/01/22 10:15:12;;;;;;;8.98;4.97;;;;;;;3.70;83.63;97991.00;5093450;28;20020;-79
2021/01/22 10:17:37;;;;;;;10.32;5.47;;;;;;;3.71;84.21;98008.03;5093605;28;20024;-79
2021/01/22 10:20:03;;;;;;;10.27;5.18;;;;;;;3.60;83.85;98018.66;5093780;28;20055;-79
2021/01/22 10:22:28;;;;;;;10.52;5.85;;;;;;;3.64;84.22;98016.81;5093172;28;20020;-78
2021/01/22 10:24:53;;;;;;;9.68;5.20;;;;;;;3.61;84.05;98019.47;5093560;28;20388;-79
2021/01/22 10:27:18;;;;;;;7.45;3.90;;;;;;;3.49;84.13;98025.00;5094109;28;20039;-79
2021/01/22 10:29:44;;;;;;;9.75;5.25;;;;;;;3.55;84.66;98027.38;5093949;28;20028;-79
2021/01/22 10:32:09;;;;;;;9.77;5.13;;;;;;;3.57;84.36;98030.69;5093620;28;20099;-78
2021/01/22 10:34:34;;;;;;;12.93;4.63;;;;;;;3.52;83.44;98027.47;5093044;28;20490;-79
2021/01/22 10:36:59;;;;;;;13.38;4.65;;;;;;;3.48;82.90;98026.72;5092792;28;20078;-79
2021/01/22 10:39:25;;;;;;;8.20;4.32;;;;;;;3.50;82.52;98030.06;5094870;28;20024;-79
2021/01/22 10:41:50;;;;;;;10.30;4.30;;;;;;;3.71;82.77;98036.25;5098848;28;20436;-79
2021/01/22 10:44:15;;;;;;;6.53;1.90;;;;;;;3.61;81.42;98035.69;5097345;28;20021;-80
2021/01/22 10:46:41;;;;;;;8.13;3.53;;;;;;;3.68;81.28;98038.91;5097038;28;20024;-79
2021/01/22 10:49:07;;;;;;;7.53;3.70;;;;;;;3.60;81.65;98040.84;5096173;28;20027;-78
2021/01/22 10:51:32;;;;;;;10.73;3.90;;;;;;;3.54;81.99;98046.16;5098111;28;20028;-78
2021/01/22 10:53:57;;;;;;;10.15;4.07;;;;;;;3.57;81.89;98043.50;5098002;28;20074;-78
2021/01/22 10:56:25;;;;;;;5.22;2.17;;;;;;;3.57;80.90;98046.94;5098318;28;20035;-79
2021/01/22 10:58:50;;;;;;;5.50;2.85;;;;;;;3.60;80.99;98051.09;5098160;28;20023;-79
2021/01/22 11:01:15;;;;;;;6.72;3.20;;;;;;;3.60;81.79;98051.09;5100403;28;20161;-79
2021/01/22 11:03:40;;;;;;;12.35;4.38;;;;;;;3.73;81.51;98056.72;5101790;28;20032;-78
2021/01/22 11:06:06;;;;;;;12.73;4.30;;;;;;;3.72;81.33;98058.41;5097942;28;20030;-78
2021/01/22 11:08:32;;;;;;;8.60;2.85;;;;;;;3.83;80.55;98056.38;5097383;28;20020;-78
2021/01/22 11:10:57;;;;;;;9.43;4.88;;;;;;;3.90;80.15;98068.09;5096107;28;20035;-78
2021/01/22 11:13:23;;;;;;;5.57;2.75;;;;;;;3.72;81.32;98049.91;5097123;28;20031;-78
2021/01/22 11:15:48;;;;;;;7.65;2.45;;;;;;;3.64;80.61;98068.09;5095551;28;20024;-78
2021/01/22 11:18:13;;;;;;;8.05;3.30;;;;;;;3.79;80.41;98067.63;5097180;28;20058;-78
2021/01/22 11:20:38;;;;;;;8.10;3.90;;;;;;;3.83;79.63;98064.06;5096142;28;20483;-78
2021/01/22 11:23:04;;;;;;;11.30;4.15;;;;;;;3.95;80.04;98067.13;5096785;28;20031;-79
2021/01/22 11:25:29;;;;;;;8.02;2.53;;;;;;;3.87;79.51;98073.31;5097146;28;20077;-78
2021/01/22 11:27:54;;;;;;;7.60;2.88;;;;;;;3.85;79.55;98072.56;5096026;28;20368;-78
2021/01/22 11:30:20;;;;;;;8.38;3.33;;;;;;;3.98;79.88;98073.00;5095786;28;20035;-78
2021/01/22 11:32:45;;;;;;;8.95;3.67;;;;;;;4.07;79.30;98079.56;5095540;28;20035;-79
2021/01/22 11:35:12;;;;;;;11.48;3.55;;;;;;;4.23;78.71;98073.06;5095681;28;20027;-78
2021/01/22 11:37:42;;;;;;;9.82;3.55;;;;;;;4.06;79.30;98076.16;5096694;28;20054;-78
2021/01/22 11:40:09;;;;;;;10.20;3.20;;;;;;;3.96;78.60;98077.34;5097061;28;20027;-78
2021/01/22 11:42:34;;;;;;;5.00;2.15;;;;;;;3.94;79.11;98099.59;5096491;28;20020;-79